createdAt,value
2022-09-23T00:00:05.073Z,100275.28
2022-09-23T00:00:36.725Z,100274.44
2022-09-23T00:01:08.952Z,100270.91
2022-09-23T00:01:40.673Z,100276.25
2022-09-23T00:02:12.334Z,100272.59
2022-09-23T00:02:45.636Z,100278.78
2022-09-23T00:03:17.092Z,100277.13
2022-09-23T00:03:48.541Z,100280.47
2022-09-23T00:04:20.151Z,100281.31
2022-09-23T00:04:51.648Z,100276.13
2022-09-23T00:05:23.091Z,100271.47
2022-09-23T00:06:01.528Z,100266.13
2022-09-23T00:06:33.069Z,100270.63
2022-09-23T00:07:04.679Z,100279.34
2022-09-23T00:07:36.131Z,100278.50
2022-09-23T00:08:08.042Z,100272.59
2022-09-23T00:08:39.590Z,100276.25
2022-09-23T00:09:10.995Z,100277.41
2022-09-23T00:09:42.413Z,100274.00
2022-09-23T00:10:13.897Z,100279.06
2022-09-23T00:10:45.347Z,100272.59
2022-09-23T00:11:17.953Z,100269.25
2022-09-23T00:11:49.435Z,100275.97
2022-09-23T00:12:20.939Z,100280.78
2022-09-23T00:12:52.535Z,100275.84
2022-09-23T00:13:24.589Z,100269.25
2022-09-23T00:13:57.005Z,100274.28
2022-09-23T00:14:28.387Z,100275.56
2022-09-23T00:14:59.797Z,100277.66
2022-09-23T00:15:31.433Z,100279.06
2022-09-23T00:16:03.865Z,100272.78
2022-09-23T00:16:35.455Z,100270.38
2022-09-23T00:17:07.135Z,100274.16
2022-09-23T00:17:38.681Z,100276.41
2022-09-23T00:18:10.127Z,100276.13
2022-09-23T00:18:41.713Z,100270.63
2022-09-23T00:19:13.245Z,100271.47
2022-09-23T00:19:44.747Z,100277.81
2022-09-23T00:20:16.255Z,100274.00
2022-09-23T00:20:47.822Z,100266.84
2022-09-23T00:21:19.456Z,100269.38
2022-09-23T00:21:50.864Z,100276.41
2022-09-23T00:22:22.357Z,100270.22
2022-09-23T00:22:53.880Z,100267.41
2022-09-23T00:23:25.398Z,100266.44
2022-09-23T00:23:56.863Z,100263.19
2022-09-23T00:24:28.304Z,100265.69
2022-09-23T00:24:59.727Z,100269.25
2022-09-23T00:25:31.245Z,100264.72
2022-09-23T00:26:03.286Z,100263.91
2022-09-23T00:26:34.779Z,100269.38
2022-09-23T00:27:06.387Z,100264.88
2022-09-23T00:27:37.943Z,100260.50
2022-09-23T00:28:09.368Z,100267.53
2022-09-23T00:28:40.832Z,100265.56
2022-09-23T00:29:12.313Z,100258.28
2022-09-23T00:29:43.794Z,100263.75
2022-09-23T00:30:15.309Z,100260.22
2022-09-23T00:30:46.806Z,100252.94
2022-09-23T00:31:19.410Z,100265.41
2022-09-23T00:31:51.101Z,100260.22
2022-09-23T00:32:22.514Z,100255.88
2022-09-23T00:32:53.959Z,100260.34
2022-09-23T00:33:25.456Z,100259.53
2022-09-23T00:33:57.862Z,100259.38
2022-09-23T00:34:29.454Z,100257.69
2022-09-23T00:35:00.929Z,100258.56
2022-09-23T00:35:32.444Z,100258.56
2022-09-23T00:36:04.734Z,100253.06
2022-09-23T00:36:36.164Z,100260.94
2022-09-23T00:37:07.719Z,100246.03
2022-09-23T00:37:39.166Z,100253.22
2022-09-23T00:38:10.654Z,100247.59
2022-09-23T00:38:42.969Z,100251.09
2022-09-23T00:39:14.402Z,100252.94
2022-09-23T00:39:45.970Z,100245.75
2022-09-23T00:40:17.514Z,100258.81
2022-09-23T00:40:49.080Z,100253.47
2022-09-23T00:41:20.560Z,100252.59
2022-09-23T00:41:52.291Z,100259.66
2022-09-23T00:42:23.907Z,100257.81
2022-09-23T00:42:55.422Z,100252.31
2022-09-23T00:43:46.031Z,100257.94
2022-09-23T00:44:36.036Z,100253.75
2022-09-23T00:45:09.434Z,100257.41
2022-09-23T00:45:41.641Z,100252.06
2022-09-23T00:46:14.259Z,100264.16
2022-09-23T00:46:45.737Z,100252.34
2022-09-23T00:47:37.420Z,100257.13
2022-09-23T00:48:09.136Z,100257.41
2022-09-23T00:48:41.052Z,100253.78
2022-09-23T00:49:13.257Z,100261.38
2022-09-23T00:49:45.420Z,100255.75
2022-09-23T00:50:37.165Z,100258.09
2022-09-23T00:51:09.524Z,100254.88
2022-09-23T00:51:43.458Z,100256.56
2022-09-23T00:52:15.571Z,100249.81
2022-09-23T00:52:47.484Z,100259.13
2022-09-23T00:53:19.683Z,100255.75
2022-09-23T00:53:51.156Z,100245.34
2022-09-23T00:54:22.671Z,100257.00
2022-09-23T00:54:54.507Z,100250.97
2022-09-23T00:55:37.071Z,100247.00
2022-09-23T00:56:08.527Z,100245.75
2022-09-23T00:56:40.184Z,100247.56
2022-09-23T00:57:11.705Z,100248.28
2022-09-23T00:57:43.610Z,100250.81
2022-09-23T00:58:15.649Z,100251.50
2022-09-23T00:58:47.100Z,100238.28
2022-09-23T00:59:18.550Z,100245.75
2022-09-23T00:59:50.125Z,100246.72
2022-09-23T01:00:21.664Z,100238.72
2022-09-23T01:00:53.387Z,100241.94
2022-09-23T01:01:24.979Z,100241.78
2022-09-23T01:01:57.291Z,100246.16
2022-09-23T01:02:28.897Z,100243.91
2022-09-23T01:03:00.676Z,100243.91
2022-09-23T01:03:32.092Z,100245.22
2022-09-23T01:04:03.679Z,100235.34
2022-09-23T01:04:35.133Z,100237.75
2022-09-23T01:05:06.875Z,100247.28
2022-09-23T01:05:38.423Z,100240.97
2022-09-23T01:06:09.838Z,100237.75
2022-09-23T01:06:41.303Z,100236.31
2022-09-23T01:07:12.729Z,100236.19
2022-09-23T01:07:45.337Z,100233.25
2022-09-23T01:08:16.884Z,100235.09
2022-09-23T01:08:48.377Z,100237.47
2022-09-23T01:09:19.930Z,100229.47
2022-09-23T01:09:51.423Z,100236.59
2022-09-23T01:10:23.051Z,100232.13
2022-09-23T01:11:00.357Z,100233.78
2022-09-23T01:11:36.766Z,100229.59
2022-09-23T01:12:18.152Z,100230.72
2022-09-23T01:12:58.598Z,100230.84
2022-09-23T01:13:50.249Z,100227.63
2022-09-23T01:14:21.711Z,100227.34
2022-09-23T01:15:05.242Z,100228.19
2022-09-23T01:15:49.006Z,100221.31
2022-09-23T01:16:20.588Z,100225.78
2022-09-23T01:16:58.329Z,100224.28
2022-09-23T01:17:29.771Z,100227.50
2022-09-23T01:18:07.095Z,100220.03
2022-09-23T01:19:11.153Z,100219.34
2022-09-23T01:19:42.554Z,100219.75
2022-09-23T01:20:20.022Z,100222.28
2022-09-23T01:21:09.796Z,100218.06
2022-09-23T01:21:44.307Z,100224.41
2022-09-23T01:22:15.838Z,100222.44
2022-09-23T01:22:53.040Z,100219.34
2022-09-23T01:23:24.689Z,100227.09
2022-09-23T01:24:01.913Z,100218.78
2022-09-23T01:24:45.379Z,100216.13
2022-09-23T01:25:19.743Z,100220.88
2022-09-23T01:25:57.328Z,100215.53
2022-09-23T01:26:47.575Z,100218.94
2022-09-23T01:27:40.618Z,100214.13
2022-09-23T01:28:20.860Z,100221.19
2022-09-23T01:29:10.220Z,100213.84
2022-09-23T01:29:41.710Z,100218.06
2022-09-23T01:30:31.881Z,100213.44
2022-09-23T01:31:05.511Z,100221.47
2022-09-23T01:31:42.970Z,100214.13
2022-09-23T01:32:20.675Z,100213.16
2022-09-23T01:32:52.076Z,100219.19
2022-09-23T01:33:42.132Z,100214.97
2022-09-23T01:34:34.035Z,100221.75
2022-09-23T01:35:08.498Z,100214.41
2022-09-23T01:35:42.625Z,100220.31
2022-09-23T01:36:24.287Z,100214.13
2022-09-23T01:37:01.175Z,100219.91
2022-09-23T01:37:52.094Z,100218.50
2022-09-23T01:38:35.901Z,100208.81
2022-09-23T01:39:11.735Z,100210.50
2022-09-23T01:39:44.679Z,100209.34
2022-09-23T01:40:20.856Z,100210.66
2022-09-23T01:40:52.364Z,100211.63
2022-09-23T01:41:41.714Z,100213.56
2022-09-23T01:42:23.439Z,100206.81
2022-09-23T01:43:02.561Z,100207.38
2022-09-23T01:43:45.386Z,100214.41
2022-09-23T01:44:21.673Z,100208.53
2022-09-23T01:44:54.935Z,100213.88
2022-09-23T01:45:34.083Z,100213.72
2022-09-23T01:46:07.684Z,100207.38
2022-09-23T01:46:44.059Z,100208.25
2022-09-23T01:47:16.663Z,100212.03
2022-09-23T01:47:59.033Z,100210.19
2022-09-23T01:48:35.589Z,100215.69
2022-09-23T01:49:20.441Z,100208.81
2022-09-23T01:50:02.745Z,100213.31
2022-09-23T01:50:34.641Z,100206.97
2022-09-23T01:51:08.109Z,100213.56
2022-09-23T01:51:40.742Z,100210.16
2022-09-23T01:52:41.420Z,100211.34
2022-09-23T01:53:15.132Z,100210.50
2022-09-23T01:53:49.365Z,100211.47
2022-09-23T01:54:29.712Z,100212.59
2022-09-23T01:55:02.411Z,100201.06
2022-09-23T01:55:34.857Z,100209.91
2022-09-23T01:56:35.673Z,100202.50
2022-09-23T01:57:07.246Z,100208.22
2022-09-23T01:57:44.678Z,100202.63
2022-09-23T01:58:20.753Z,100207.69
2022-09-23T01:58:52.275Z,100208.81
2022-09-23T01:59:25.635Z,100207.69
2022-09-23T01:59:59.299Z,100200.66
2022-09-23T02:00:31.541Z,100200.66
2022-09-23T02:01:04.472Z,100203.47
2022-09-23T02:01:41.641Z,100205.03
2022-09-23T02:02:17.409Z,100205.84
2022-09-23T02:02:50.178Z,100200.38
2022-09-23T02:03:22.987Z,100200.50
2022-09-23T02:04:03.652Z,100207.69
2022-09-23T02:04:38.689Z,100198.81
2022-09-23T02:05:20.209Z,100195.31
2022-09-23T02:05:52.773Z,100203.03
2022-09-23T02:06:25.862Z,100203.31
2022-09-23T02:07:08.126Z,100203.59
2022-09-23T02:07:44.022Z,100205.56
2022-09-23T02:08:19.643Z,100202.78
2022-09-23T02:08:52.998Z,100201.91
2022-09-23T02:09:25.428Z,100205.44
2022-09-23T02:10:02.854Z,100202.63
2022-09-23T02:10:42.506Z,100201.63
2022-09-23T02:11:14.597Z,100200.94
2022-09-23T02:11:46.263Z,100195.31
2022-09-23T02:12:18.423Z,100195.59
2022-09-23T02:12:49.941Z,100207.09
2022-09-23T02:13:29.168Z,100207.81
2022-09-23T02:14:02.020Z,100206.81
2022-09-23T02:14:36.840Z,100196.13
2022-09-23T02:15:15.713Z,100198.94
2022-09-23T02:15:53.205Z,100199.81
2022-09-23T02:16:26.420Z,100198.66
2022-09-23T02:16:59.334Z,100197.84
2022-09-23T02:17:33.613Z,100202.63
2022-09-23T02:18:07.814Z,100201.47
2022-09-23T02:18:46.256Z,100202.34
2022-09-23T02:19:17.682Z,100199.50
2022-09-23T02:19:51.348Z,100192.50
2022-09-23T02:20:24.478Z,100202.19
2022-09-23T02:20:57.390Z,100202.34
2022-09-23T02:21:30.148Z,100198.81
2022-09-23T02:22:03.737Z,100195.16
2022-09-23T02:22:39.654Z,100191.09
2022-09-23T02:23:11.060Z,100193.31
2022-09-23T02:23:43.437Z,100194.34
2022-09-23T02:24:15.648Z,100191.94
2022-09-23T02:24:47.238Z,100194.63
2022-09-23T02:25:18.719Z,100193.59
2022-09-23T02:25:50.158Z,100198.13
2022-09-23T02:26:28.489Z,100183.94
2022-09-23T02:27:10.616Z,100197.69
2022-09-23T02:27:47.331Z,100192.47
2022-09-23T02:28:20.719Z,100194.75
2022-09-23T02:28:52.143Z,100193.06
2022-09-23T02:29:31.639Z,100192.19
2022-09-23T02:30:12.010Z,100198.94
2022-09-23T02:31:05.191Z,100183.78
2022-09-23T02:31:36.729Z,100189.13
2022-09-23T02:32:16.396Z,100188.28
2022-09-23T02:33:08.525Z,100184.75
2022-09-23T02:33:41.918Z,100184.63
2022-09-23T02:34:13.407Z,100182.94
2022-09-23T02:34:46.039Z,100187.56
2022-09-23T02:35:24.023Z,100192.09
2022-09-23T02:35:56.087Z,100179.56
2022-09-23T02:36:31.325Z,100189.41
2022-09-23T02:37:08.184Z,100182.25
2022-09-23T02:37:42.225Z,100182.09
2022-09-23T02:38:20.894Z,100184.19
2022-09-23T02:38:53.474Z,100183.22
2022-09-23T02:39:26.818Z,100178.59
2022-09-23T02:40:17.236Z,100181.66
2022-09-23T02:40:48.768Z,100178.84
2022-09-23T02:41:27.383Z,100183.47
2022-09-23T02:42:09.265Z,100177.44
2022-09-23T02:42:43.580Z,100178.13
2022-09-23T02:43:17.485Z,100187.72
2022-09-23T02:43:57.619Z,100180.53
2022-09-23T02:44:29.113Z,100173.25
2022-09-23T02:45:00.678Z,100176.91
2022-09-23T02:45:32.198Z,100181.50
2022-09-23T02:46:04.000Z,100177.16
2022-09-23T02:46:35.596Z,100182.38
2022-09-23T02:47:07.132Z,100175.31
2022-09-23T02:47:38.668Z,100173.50
2022-09-23T02:48:13.910Z,100182.09
2022-09-23T02:49:01.399Z,100175.06
2022-09-23T02:49:32.908Z,100180.41
2022-09-23T02:50:04.549Z,100176.06
2022-09-23T02:50:36.158Z,100179.72
2022-09-23T02:51:08.108Z,100179.81
2022-09-23T02:51:39.858Z,100176.16
2022-09-23T02:52:11.260Z,100175.19
2022-09-23T02:52:42.775Z,100171.69
2022-09-23T02:53:14.338Z,100170.41
2022-09-23T02:53:45.991Z,100164.94
2022-09-23T02:54:21.002Z,100171.94
2022-09-23T02:54:52.484Z,100171.09
2022-09-23T02:55:24.011Z,100170.81
2022-09-23T02:55:55.501Z,100167.44
2022-09-23T02:56:27.055Z,100165.78
2022-09-23T02:56:58.581Z,100169.13
2022-09-23T02:57:30.074Z,100169.28
2022-09-23T02:58:01.677Z,100167.44
2022-09-23T02:58:33.222Z,100169.97
2022-09-23T02:59:04.683Z,100170.81
2022-09-23T02:59:36.186Z,100167.19
2022-09-23T03:00:07.947Z,100168.88
2022-09-23T03:00:43.943Z,100168.31
2022-09-23T03:01:15.510Z,100164.06
2022-09-23T03:01:52.700Z,100160.44
2022-09-23T03:02:42.702Z,100165.63
2022-09-23T03:03:20.148Z,100160.44
2022-09-23T03:03:51.624Z,100167.44
2022-09-23T03:04:28.732Z,100165.06
2022-09-23T03:05:29.299Z,100165.06
2022-09-23T03:06:00.904Z,100160.56
2022-09-23T03:06:33.573Z,100161.13
2022-09-23T03:07:05.061Z,100162.09
2022-09-23T03:07:41.371Z,100157.63
2022-09-23T03:08:23.533Z,100164.75
2022-09-23T03:08:59.157Z,100163.78
2022-09-23T03:09:34.715Z,100156.75
2022-09-23T03:10:13.569Z,100152.13
2022-09-23T03:11:14.293Z,100152.28
2022-09-23T03:11:48.123Z,100159.41
2022-09-23T03:12:31.394Z,100149.47
2022-09-23T03:13:02.840Z,100151.41
2022-09-23T03:13:52.738Z,100156.06
2022-09-23T03:14:32.974Z,100147.06
2022-09-23T03:15:23.297Z,100155.38
2022-09-23T03:15:56.467Z,100156.19
2022-09-23T03:16:40.530Z,100147.06
2022-09-23T03:17:18.381Z,100148.91
2022-09-23T03:17:52.759Z,100148.75
2022-09-23T03:18:31.774Z,100141.72
2022-09-23T03:19:03.269Z,100142.72
2022-09-23T03:19:37.614Z,100139.75
2022-09-23T03:20:13.116Z,100138.78
2022-09-23T03:20:47.462Z,100134.41
2022-09-23T03:21:18.891Z,100137.91
2022-09-23T03:21:59.133Z,100141.44
2022-09-23T03:22:46.884Z,100141.34
2022-09-23T03:23:22.275Z,100141.44
2022-09-23T03:23:53.718Z,100133.31
2022-09-23T03:24:25.246Z,100137.09
2022-09-23T03:24:58.742Z,100132.47
2022-09-23T03:25:30.559Z,100135.13
2022-09-23T03:26:02.743Z,100136.97
2022-09-23T03:26:34.847Z,100134.41
2022-09-23T03:27:10.043Z,100137.91
2022-09-23T03:27:41.598Z,100133.44
2022-09-23T03:28:13.125Z,100142.44
2022-09-23T03:28:44.684Z,100139.91
2022-09-23T03:29:16.123Z,100137.09
2022-09-23T03:29:50.366Z,100136.25
2022-09-23T03:30:21.812Z,100137.22
2022-09-23T03:30:53.307Z,100133.44
2022-09-23T03:31:24.797Z,100134.31
2022-09-23T03:31:56.431Z,100137.09
2022-09-23T03:32:28.007Z,100133.44
2022-09-23T03:32:59.596Z,100128.09
2022-09-23T03:33:31.017Z,100132.56
2022-09-23T03:34:03.561Z,100137.91
2022-09-23T03:34:35.120Z,100130.03
2022-09-23T03:35:06.951Z,100129.06
2022-09-23T03:35:40.978Z,100131.75
2022-09-23T03:36:12.433Z,100125.72
2022-09-23T03:36:47.462Z,100124.69
2022-09-23T03:37:23.355Z,100122.91
2022-09-23T03:38:01.186Z,100130.34
2022-09-23T03:38:34.793Z,100125.84
2022-09-23T03:39:07.000Z,100125.72
2022-09-23T03:39:46.940Z,100125.84
2022-09-23T03:40:22.751Z,100126.69
2022-09-23T03:40:54.354Z,100125.72
2022-09-23T03:41:30.232Z,100123.03
2022-09-23T03:42:03.681Z,100117.69
2022-09-23T03:42:35.229Z,100131.75
2022-09-23T03:43:06.744Z,100125.72
2022-09-23T03:43:39.079Z,100128.38
2022-09-23T03:44:10.692Z,100130.03
2022-09-23T03:44:45.529Z,100126.41
2022-09-23T03:45:21.603Z,100122.91
2022-09-23T03:45:53.458Z,100128.53
2022-09-23T03:46:27.766Z,100123.31
2022-09-23T03:46:59.477Z,100124.28
2022-09-23T03:47:31.140Z,100124.16
2022-09-23T03:48:02.726Z,100128.38
2022-09-23T03:48:34.242Z,100125.84
2022-09-23T03:49:10.434Z,100124.88
2022-09-23T03:49:42.860Z,100125.84
2022-09-23T03:50:14.472Z,100121.34
2022-09-23T03:50:46.028Z,100127.69
2022-09-23T03:51:23.009Z,100124.16
2022-09-23T03:51:54.891Z,100124.16
2022-09-23T03:52:26.508Z,100122.22
2022-09-23T03:52:58.166Z,100122.03
2022-09-23T03:53:29.735Z,100122.22
2022-09-23T03:54:01.375Z,100123.31
2022-09-23T03:54:32.947Z,100123.31
2022-09-23T03:55:04.569Z,100126.69
2022-09-23T03:55:36.167Z,100127.84
2022-09-23T03:56:07.605Z,100125.03
2022-09-23T03:56:39.198Z,100123.19
2022-09-23T03:57:10.857Z,100119.81
2022-09-23T03:57:42.378Z,100121.63
2022-09-23T03:58:13.908Z,100123.31
2022-09-23T03:58:45.434Z,100120.50
2022-09-23T03:59:16.952Z,100122.34
2022-09-23T03:59:51.412Z,100118.66
2022-09-23T04:00:22.922Z,100117.69
2022-09-23T04:00:54.477Z,100119.38
2022-09-23T04:01:26.115Z,100122.22
2022-09-23T04:01:57.767Z,100120.38
2022-09-23T04:02:29.326Z,100116.00
2022-09-23T04:03:00.859Z,100120.50
2022-09-23T04:03:32.495Z,100121.34
2022-09-23T04:04:03.912Z,100114.88
2022-09-23T04:04:38.243Z,100115.03
2022-09-23T04:05:10.116Z,100116.88
2022-09-23T04:05:41.707Z,100115.03
2022-09-23T04:06:13.375Z,100109.53
2022-09-23T04:06:45.026Z,100113.88
2022-09-23T04:07:16.673Z,100113.88
2022-09-23T04:07:48.136Z,100113.03
2022-09-23T04:08:19.794Z,100103.34
2022-09-23T04:08:51.297Z,100115.72
2022-09-23T04:09:22.995Z,100114.03
2022-09-23T04:09:54.559Z,100116.00
2022-09-23T04:10:26.134Z,100115.03
2022-09-23T04:11:01.077Z,100107.00
2022-09-23T04:11:32.600Z,100113.19
2022-09-23T04:12:04.248Z,100118.53
2022-09-23T04:12:35.957Z,100107.00
2022-09-23T04:13:07.437Z,100113.03
2022-09-23T04:13:38.965Z,100110.38
2022-09-23T04:14:10.396Z,100114.03
2022-09-23T04:14:41.948Z,100115.03
2022-09-23T04:15:13.383Z,100112.22
2022-09-23T04:15:44.837Z,100107.00
2022-09-23T04:16:16.284Z,100103.66
2022-09-23T04:16:47.980Z,100108.13
2022-09-23T04:17:19.526Z,100114.34
2022-09-23T04:17:50.916Z,100110.66
2022-09-23T04:18:22.420Z,100099.84
2022-09-23T04:18:54.016Z,100105.03
2022-09-23T04:19:25.466Z,100102.50
2022-09-23T04:19:56.950Z,100103.34
2022-09-23T04:20:28.408Z,100103.34
2022-09-23T04:20:59.915Z,100113.19
2022-09-23T04:21:31.413Z,100100.84
2022-09-23T04:22:03.108Z,100102.66
2022-09-23T04:22:34.578Z,100111.34
2022-09-23T04:23:06.060Z,100107.72
2022-09-23T04:23:37.499Z,100110.50
2022-09-23T04:24:09.238Z,100098.00
2022-09-23T04:24:40.824Z,100102.50
2022-09-23T04:25:12.327Z,100102.38
2022-09-23T04:25:44.693Z,100107.72
2022-09-23T04:26:16.098Z,100109.53
2022-09-23T04:26:49.916Z,100105.03
2022-09-23T04:27:21.377Z,100112.34
2022-09-23T04:27:52.833Z,100113.03
2022-09-23T04:28:24.310Z,100102.38
2022-09-23T04:28:55.795Z,100101.69
2022-09-23T04:29:27.254Z,100108.69
2022-09-23T04:29:58.641Z,100108.69
2022-09-23T04:30:30.106Z,100111.34
2022-09-23T04:31:07.730Z,100104.19
2022-09-23T04:31:39.245Z,100115.03
2022-09-23T04:32:10.797Z,100106.00
2022-09-23T04:32:42.288Z,100100.97
2022-09-23T04:33:13.836Z,100100.84
2022-09-23T04:33:45.245Z,100102.50
2022-09-23T04:34:16.811Z,100105.31
2022-09-23T04:34:48.304Z,100108.00
2022-09-23T04:35:19.816Z,100104.34
2022-09-23T04:35:51.480Z,100099.84
2022-09-23T04:36:22.950Z,100107.00
2022-09-23T04:36:54.434Z,100101.69
2022-09-23T04:37:25.990Z,100101.69
2022-09-23T04:37:57.478Z,100104.34
2022-09-23T04:38:29.134Z,100099.00
2022-09-23T04:39:00.865Z,100105.47
2022-09-23T04:39:32.337Z,100101.81
2022-09-23T04:40:04.064Z,100104.50
2022-09-23T04:40:35.798Z,100099.84
2022-09-23T04:41:08.792Z,100099.00
2022-09-23T04:41:40.495Z,100100.66
2022-09-23T04:42:11.979Z,100101.69
2022-09-23T04:42:43.452Z,100101.69
2022-09-23T04:43:15.406Z,100092.66
2022-09-23T04:43:46.995Z,100100.84
2022-09-23T04:44:18.622Z,100109.69
2022-09-23T04:44:50.132Z,100093.66
2022-09-23T04:45:21.657Z,100108.69
2022-09-23T04:46:03.198Z,100098.00
2022-09-23T04:46:34.683Z,100096.34
2022-09-23T04:47:06.307Z,100093.66
2022-09-23T04:47:37.869Z,100094.63
2022-09-23T04:48:09.671Z,100106.19
2022-09-23T04:48:41.216Z,100100.97
2022-09-23T04:49:12.820Z,100098.47
2022-09-23T04:49:44.322Z,100097.31
2022-09-23T04:50:15.902Z,100098.31
2022-09-23T04:50:47.456Z,100099.16
2022-09-23T04:51:21.775Z,100095.50
2022-09-23T04:51:53.234Z,100095.31
2022-09-23T04:52:24.760Z,100091.97
2022-09-23T04:52:56.210Z,100098.16
2022-09-23T04:53:27.703Z,100088.31
2022-09-23T04:53:59.119Z,100095.31
2022-09-23T04:54:30.601Z,100090.16
2022-09-23T04:55:02.147Z,100088.31
2022-09-23T04:55:33.669Z,100093.81
2022-09-23T04:56:06.084Z,100088.31
2022-09-23T04:56:37.508Z,100089.97
2022-09-23T04:57:09.003Z,100091.81
2022-09-23T04:57:40.517Z,100084.63
2022-09-23T04:58:12.183Z,100089.97
2022-09-23T04:58:43.880Z,100085.38
2022-09-23T04:59:15.346Z,100089.84
2022-09-23T04:59:46.967Z,100085.38
2022-09-23T05:00:18.501Z,100080.16
2022-09-23T05:00:50.063Z,100080.03
2022-09-23T05:01:24.726Z,100080.03
2022-09-23T05:01:56.427Z,100082.97
2022-09-23T05:02:28.046Z,100080.31
2022-09-23T05:02:59.464Z,100078.31
2022-09-23T05:03:30.953Z,100078.31
2022-09-23T05:04:03.482Z,100086.34
2022-09-23T05:04:35.095Z,100080.31
2022-09-23T05:05:06.809Z,100077.63
2022-09-23T05:05:38.273Z,100076.63
2022-09-23T05:06:09.872Z,100078.47
2022-09-23T05:06:41.470Z,100075.09
2022-09-23T05:07:12.975Z,100074.28
2022-09-23T05:07:44.517Z,100072.28
2022-09-23T05:08:16.036Z,100076.94
2022-09-23T05:08:53.931Z,100081.28
2022-09-23T05:09:25.464Z,100070.75
2022-09-23T05:09:56.978Z,100077.78
2022-09-23T05:10:28.475Z,100072.59
2022-09-23T05:11:00.491Z,100074.28
2022-09-23T05:11:31.983Z,100070.06
2022-09-23T05:12:03.790Z,100069.09
2022-09-23T05:12:35.355Z,100070.19
2022-09-23T05:13:06.836Z,100073.56
2022-09-23T05:13:38.352Z,100072.59
2022-09-23T05:14:09.792Z,100064.56
2022-09-23T05:14:41.320Z,100066.56
2022-09-23T05:15:12.863Z,100069.09
2022-09-23T05:15:44.377Z,100075.25
2022-09-23T05:16:16.017Z,100063.75
2022-09-23T05:16:47.643Z,100063.03
2022-09-23T05:17:19.063Z,100071.91
2022-09-23T05:17:50.562Z,100070.75
2022-09-23T05:18:22.077Z,100071.59
2022-09-23T05:18:53.555Z,100061.75
2022-09-23T05:19:25.047Z,100065.94
2022-09-23T05:19:56.892Z,100067.94
2022-09-23T05:20:28.335Z,100066.25
2022-09-23T05:20:59.841Z,100066.25
2022-09-23T05:21:31.361Z,100070.75
2022-09-23T05:22:02.894Z,100064.56
2022-09-23T05:22:34.400Z,100068.94
2022-09-23T05:23:05.856Z,100065.41
2022-09-23T05:23:37.485Z,100067.25
2022-09-23T05:24:09.020Z,100070.06
2022-09-23T05:24:40.591Z,100069.09
2022-09-23T05:25:12.152Z,100069.78
2022-09-23T05:25:43.601Z,100067.25
2022-09-23T05:26:15.183Z,100071.91
2022-09-23T05:26:46.616Z,100065.41
2022-09-23T05:27:18.129Z,100069.91
2022-09-23T05:27:49.812Z,100068.94
2022-09-23T05:28:21.320Z,100068.06
2022-09-23T05:28:53.139Z,100064.28
2022-09-23T05:29:24.583Z,100067.94
2022-09-23T05:29:56.043Z,100065.25
2022-09-23T05:30:27.466Z,100066.97
2022-09-23T05:31:14.719Z,100072.28
2022-09-23T05:31:50.362Z,100071.28
2022-09-23T05:32:21.837Z,100062.59
2022-09-23T05:32:53.369Z,100066.97
2022-09-23T05:33:24.894Z,100061.63
2022-09-23T05:33:57.092Z,100065.94
2022-09-23T05:34:28.546Z,100066.97
2022-09-23T05:35:00.177Z,100062.59
2022-09-23T05:35:31.686Z,100062.59
2022-09-23T05:36:03.300Z,100071.28
2022-09-23T05:36:38.369Z,100062.88
2022-09-23T05:37:10.602Z,100068.78
2022-09-23T05:37:42.104Z,100066.41
2022-09-23T05:38:14.153Z,100067.94
2022-09-23T05:38:45.677Z,100066.41
2022-09-23T05:39:17.284Z,100060.06
2022-09-23T05:39:48.963Z,100070.75
2022-09-23T05:40:20.526Z,100075.09
2022-09-23T05:40:55.539Z,100060.94
2022-09-23T05:41:27.141Z,100080.59
2022-09-23T05:41:58.687Z,100076.94
2022-09-23T05:42:30.213Z,100073.28
2022-09-23T05:43:01.728Z,100076.94
2022-09-23T05:43:33.438Z,100076.94
2022-09-23T05:44:05.012Z,100078.63
2022-09-23T05:44:36.598Z,100072.59
2022-09-23T05:45:08.258Z,100073.41
2022-09-23T05:45:39.754Z,100082.28
2022-09-23T05:46:13.622Z,100078.91
2022-09-23T05:46:45.167Z,100075.25
2022-09-23T05:47:16.764Z,100076.38
2022-09-23T05:47:48.237Z,100081.16
2022-09-23T05:48:19.739Z,100079.31
2022-09-23T05:48:51.208Z,100076.50
2022-09-23T05:49:37.708Z,100073.28
2022-09-23T05:50:14.114Z,100085.38
2022-09-23T05:50:51.797Z,100080.19
2022-09-23T05:51:26.490Z,100072.88
2022-09-23T05:52:01.994Z,100081.72
2022-09-23T05:52:33.542Z,100085.25
2022-09-23T05:53:05.003Z,100078.91
2022-09-23T05:53:36.520Z,100080.59
2022-09-23T05:54:08.153Z,100079.91
2022-09-23T05:54:39.753Z,100086.06
2022-09-23T05:55:11.292Z,100084.25
2022-09-23T05:55:42.842Z,100079.75
2022-09-23T05:56:14.750Z,100085.94
2022-09-23T05:56:46.290Z,100087.78
2022-09-23T05:57:17.707Z,100080.59
2022-09-23T05:57:49.248Z,100086.91
2022-09-23T05:58:20.897Z,100087.91
2022-09-23T05:58:52.932Z,100078.91
2022-09-23T05:59:24.451Z,100087.91
2022-09-23T05:59:55.995Z,100082.56
2022-09-23T06:00:27.481Z,100088.88
2022-09-23T06:00:58.918Z,100091.41
2022-09-23T06:01:31.294Z,100087.06
2022-09-23T06:02:02.963Z,100085.09
2022-09-23T06:02:34.494Z,100087.91
2022-09-23T06:03:06.373Z,100086.22
2022-09-23T06:03:37.957Z,100087.91
2022-09-23T06:04:10.428Z,100090.59
2022-09-23T06:04:42.029Z,100091.84
2022-09-23T06:05:13.620Z,100089.03
2022-09-23T06:05:45.294Z,100087.06
2022-09-23T06:06:17.624Z,100086.06
2022-09-23T06:06:49.196Z,100080.75
2022-09-23T06:07:20.655Z,100081.03
2022-09-23T06:07:52.050Z,100088.06
2022-09-23T06:08:23.477Z,100093.25
2022-09-23T06:08:54.928Z,100083.41
2022-09-23T06:09:26.435Z,100080.75
2022-09-23T06:09:57.973Z,100083.41
2022-09-23T06:10:29.522Z,100087.06
2022-09-23T06:11:04.496Z,100082.56
2022-09-23T06:11:36.047Z,100083.69
2022-09-23T06:12:07.579Z,100088.19
2022-09-23T06:12:39.050Z,100085.38
2022-09-23T06:13:10.508Z,100081.72
2022-09-23T06:13:41.981Z,100083.41
2022-09-23T06:14:13.485Z,100086.22
2022-09-23T06:14:44.942Z,100084.53
2022-09-23T06:15:16.478Z,100078.22
2022-09-23T06:15:47.994Z,100079.91
2022-09-23T06:16:19.642Z,100083.69
2022-09-23T06:16:51.182Z,100081.16
2022-09-23T06:17:22.635Z,100078.50
2022-09-23T06:17:54.144Z,100088.19
2022-09-23T06:18:25.642Z,100083.97
2022-09-23T06:19:00.618Z,100086.50
2022-09-23T06:19:34.593Z,100082.88
2022-09-23T06:20:06.315Z,100079.19
2022-09-23T06:20:37.844Z,100077.22
2022-09-23T06:21:10.254Z,100085.25
2022-09-23T06:21:41.719Z,100074.72
2022-09-23T06:22:13.218Z,100080.88
2022-09-23T06:22:44.663Z,100073.84
2022-09-23T06:23:16.153Z,100071.31
2022-09-23T06:23:47.627Z,100077.94
2022-09-23T06:24:21.999Z,100073.28